Terminal Aerodrome Forecast
Issued by NWS

Home | Current Version | Previous Version | Text Only | Print | Product List | Glossary On
Versions: 1 2 3 4 5 6 7 8 9 10 11 12 13 14 15 16 17 18 19 20 21 22
000
FTUS43 KDVN 192326
TAFCID
TAF
KCID 192326Z 2000/2024 36007KT P6SM OVC200
     FM200800 03006KT P6SM OVC120
     FM201200 05006KT P6SM VCSH OVC080
     FM201500 07006KT P6SM -RA OVC050=

USA.gov is the U.S. government's official web portal to all federal, state and local government web resources and services.